Time;durP1;ratioP1;P1;durP2;ratioP2;P2;SDS_P1;SDS_P2;PMS_P1;PMS_P2;Temp;Humidity;BMP_temperature;BMP_pressure;BME280_temperature;BME280_humidity;BME280_pressure;Samples;Min_cycle;Max_cycle;Signal;HPM_P1;HPM_P2
2021/05/08 00:01:46;;;;;;;4.53;2.30;;;3.30;99.90;;;;;;5075937;28;20103;-78
2021/05/08 00:04:11;;;;;;;5.88;2.88;;;3.30;99.90;;;;;;5094968;22;20051;-76
2021/05/08 00:06:37;;;;;;;8.95;2.63;;;3.30;99.90;;;;;;5057920;28;20401;-76
2021/05/08 00:09:07;;;;;;;6.28;2.70;;;3.30;99.90;;;;;;5098310;28;20026;-75
2021/05/08 00:11:34;;;;;;;11.70;3.17;;;3.30;99.90;;;;;;5087089;28;20432;-76
2021/05/08 00:14:00;;;;;;;9.13;3.15;;;3.30;99.90;;;;;;5076238;28;20044;-75
2021/05/08 00:16:25;;;;;;;7.45;3.88;;;3.30;99.90;;;;;;5057974;28;20535;-76
2021/05/08 00:18:51;;;;;;;7.93;3.65;;;3.30;99.90;;;;;;5057455;28;20021;-76
2021/05/08 00:21:17;;;;;;;8.77;3.78;;;3.30;99.90;;;;;;5057541;28;20029;-76
2021/05/08 00:23:42;;;;;;;6.28;3.83;;;3.30;99.90;;;;;;5075854;28;20009;-76
2021/05/08 00:26:08;;;;;;;9.60;3.03;;;3.30;99.90;;;;;;5075291;28;20016;-76
2021/05/08 00:28:34;;;;;;;6.25;3.08;;;3.30;99.90;;;;;;5075326;28;20528;-76
2021/05/08 00:30:59;;;;;;;7.45;3.10;;;3.20;99.90;;;;;;5058058;28;20024;-76
2021/05/08 00:33:25;;;;;;;9.88;3.63;;;3.20;99.90;;;;;;5075333;28;20108;-76
2021/05/08 00:35:50;;;;;;;7.45;3.35;;;3.30;99.90;;;;;;5090905;28;20150;-76
2021/05/08 00:38:16;;;;;;;6.88;3.22;;;3.30;99.90;;;;;;5075063;28;20028;-76
2021/05/08 00:40:42;;;;;;;7.03;2.88;;;3.30;99.90;;;;;;5057044;28;20031;-76
2021/05/08 00:43:07;;;;;;;6.93;3.47;;;3.30;99.90;;;;;;5056330;28;20046;-76
2021/05/08 00:45:33;;;;;;;11.15;3.85;;;3.30;99.90;;;;;;5075133;28;20063;-76
2021/05/08 00:48:09;;;;;;;7.07;3.40;;;3.30;99.90;;;;;;5074775;28;20074;-78
2021/05/08 00:50:35;;;;;;;6.70;3.83;;;3.30;99.90;;;;;;5075880;28;20020;-75
2021/05/08 00:53:02;;;;;;;6.55;3.53;;;3.40;99.90;;;;;;5057288;28;20025;-76
2021/05/08 00:55:28;;;;;;;10.98;4.18;;;3.40;99.90;;;;;;5057333;28;20409;-77
2021/05/08 00:57:54;;;;;;;7.60;3.53;;;3.40;99.90;;;;;;5074903;28;20028;-76
2021/05/08 01:00:20;;;;;;;8.88;3.75;;;3.40;99.90;;;;;;5057308;28;20374;-77
2021/05/08 01:02:46;;;;;;;8.15;3.83;;;3.50;99.90;;;;;;5074982;28;20051;-75
2021/05/08 01:05:12;;;;;;;6.75;3.67;;;3.40;99.90;;;;;;5057824;28;20020;-75
2021/05/08 01:07:40;;;;;;;8.70;3.40;;;3.40;99.90;;;;;;5075455;28;20484;-76
2021/05/08 01:10:09;;;;;;;7.80;4.03;;;3.40;99.90;;;;;;5057098;28;20059;-75
2021/05/08 01:12:36;;;;;;;10.20;4.35;;;3.50;99.90;;;;;;5074561;28;20366;-78
2021/05/08 01:15:03;;;;;;;6.88;4.28;;;3.50;99.90;;;;;;5075041;28;20465;-76
2021/05/08 01:17:29;;;;;;;8.10;4.28;;;3.50;99.90;;;;;;5069907;22;20041;-75
2021/05/08 01:19:55;;;;;;;7.15;3.88;;;3.40;99.90;;;;;;5074805;28;20028;-75
2021/05/08 01:22:20;;;;;;;11.07;4.60;;;3.40;99.90;;;;;;5056520;28;20020;-76
2021/05/08 01:24:48;;;;;;;12.52;4.80;;;3.50;99.90;;;;;;5057105;28;20024;-75
2021/05/08 01:27:14;;;;;;;8.48;4.75;;;3.50;99.90;;;;;;5069800;22;20051;-77
2021/05/08 01:29:39;;;;;;;10.40;4.88;;;3.50;99.90;;;;;;5074973;28;20486;-76
2021/05/08 01:32:05;;;;;;;12.98;5.68;;;3.50;99.90;;;;;;5087565;22;20048;-76
2021/05/08 01:34:31;;;;;;;10.90;5.40;;;3.50;99.90;;;;;;5073843;28;20024;-76
2021/05/08 01:36:56;;;;;;;11.73;5.65;;;3.50;99.90;;;;;;5074598;28;20443;-76
2021/05/08 01:39:22;;;;;;;10.90;5.30;;;3.50;99.90;;;;;;5056459;28;20401;-76
2021/05/08 01:41:48;;;;;;;13.00;4.78;;;3.50;99.90;;;;;;5074477;28;20378;-76
2021/05/08 01:44:13;;;;;;;10.95;5.22;;;3.60;99.90;;;;;;5074410;28;20020;-76
2021/05/08 01:46:39;;;;;;;11.57;4.88;;;3.60;99.90;;;;;;5088419;22;20051;-76
2021/05/08 01:49:05;;;;;;;10.98;4.70;;;3.60;99.90;;;;;;5100017;22;20036;-75
2021/05/08 01:51:31;;;;;;;10.32;5.22;;;3.60;99.90;;;;;;5076544;28;20020;-78
2021/05/08 01:53:56;;;;;;;9.65;4.82;;;3.60;99.90;;;;;;5076308;28;20032;-75
2021/05/08 01:56:22;;;;;;;10.27;5.55;;;3.60;99.90;;;;;;5077606;28;20510;-76
2021/05/08 01:58:48;;;;;;;11.40;5.13;;;3.50;99.90;;;;;;5075983;28;20021;-76
2021/05/08 02:01:13;;;;;;;11.75;4.78;;;3.60;99.90;;;;;;5094394;28;20024;-76
2021/05/08 02:03:39;;;;;;;10.48;5.30;;;3.60;99.90;;;;;;5093760;28;20035;-79
2021/05/08 02:06:05;;;;;;;17.77;5.35;;;3.70;99.90;;;;;;5094281;28;20019;-79
2021/05/08 02:08:30;;;;;;;11.02;5.18;;;3.70;99.90;;;;;;5093860;28;20523;-79
2021/05/08 02:10:56;;;;;;;12.50;5.45;;;3.70;99.90;;;;;;5094090;28;20492;-78
2021/05/08 02:13:21;;;;;;;12.18;5.22;;;3.70;99.90;;;;;;5075212;28;20032;-79
2021/05/08 02:15:47;;;;;;;12.10;5.22;;;3.70;99.90;;;;;;5094206;28;20518;-79
2021/05/08 02:18:12;;;;;;;10.98;5.65;;;3.70;99.90;;;;;;5094179;28;20084;-79
2021/05/08 02:20:40;;;;;;;14.60;5.88;;;3.80;99.90;;;;;;5093828;28;20020;-79
2021/05/08 02:25:34;;;;;;;13.98;6.00;;;3.80;99.90;;;;;;5071705;28;20036;-76
2021/05/08 02:27:59;;;;;;;11.52;5.80;;;3.90;99.90;;;;;;5055554;28;20550;-76
2021/05/08 02:30:31;;;;;;;9.65;5.10;;;3.80;99.90;;;;;;5073638;28;20020;-76
2021/05/08 02:32:56;;;;;;;11.48;5.13;;;3.80;99.90;;;;;;5055962;28;20086;-76
2021/05/08 02:35:23;;;;;;;13.18;6.25;;;3.80;99.90;;;;;;5073687;28;20100;-76
2021/05/08 02:37:50;;;;;;;11.35;5.78;;;3.90;99.90;;;;;;5073240;28;20031;-77
2021/05/08 02:40:22;;;;;;;16.02;6.45;;;3.80;99.90;;;;;;5055959;28;20371;-76
2021/05/08 02:42:48;;;;;;;12.43;6.80;;;3.90;99.90;;;;;;5055392;28;20023;-78
2021/05/08 02:45:14;;;;;;;12.63;6.82;;;3.90;99.90;;;;;;5055695;28;20450;-76
2021/05/08 02:47:42;;;;;;;16.27;7.00;;;4.00;99.90;;;;;;5056191;28;20047;-76
2021/05/08 02:50:11;;;;;;;11.88;6.00;;;4.00;99.90;;;;;;5073913;28;20032;-76
2021/05/08 02:52:36;;;;;;;12.57;6.47;;;4.00;99.90;;;;;;5055321;28;20024;-76
2021/05/08 02:55:03;;;;;;;14.38;6.43;;;4.00;99.90;;;;;;5056219;28;20031;-76
2021/05/08 02:57:29;;;;;;;16.45;7.45;;;4.00;99.90;;;;;;5073121;28;20020;-77
2021/05/08 02:59:54;;;;;;;18.77;6.75;;;4.00;99.90;;;;;;5055368;28;20393;-77
2021/05/08 03:02:20;;;;;;;14.25;8.15;;;4.00;99.90;;;;;;5073558;28;20112;-76
2021/05/08 03:04:45;;;;;;;14.15;6.88;;;4.10;99.90;;;;;;5087304;22;20052;-77
2021/05/08 03:07:11;;;;;;;14.45;6.85;;;4.20;99.90;;;;;;5078468;28;20486;-76
2021/05/08 03:09:37;;;;;;;13.65;7.55;;;4.20;99.90;;;;;;5136729;22;20066;-77
2021/05/08 03:12:04;;;;;;;16.75;7.90;;;4.20;99.90;;;;;;5096656;28;20032;-76
2021/05/08 03:14:30;;;;;;;12.70;6.50;;;4.30;99.90;;;;;;5079080;28;20415;-76
2021/05/08 03:16:57;;;;;;;13.43;7.15;;;4.30;99.90;;;;;;5097406;28;20028;-76
2021/05/08 03:19:22;;;;;;;18.48;7.65;;;4.30;99.90;;;;;;5078526;28;20499;-76
2021/05/08 03:21:48;;;;;;;17.15;7.75;;;4.30;99.90;;;;;;5096604;28;20020;-75
2021/05/08 03:24:13;;;;;;;16.38;7.28;;;4.30;99.90;;;;;;5097014;28;20103;-75
2021/05/08 03:26:39;;;;;;;15.73;7.57;;;4.30;99.90;;;;;;5098215;28;20044;-77
2021/05/08 03:29:05;;;;;;;12.00;6.45;;;4.30;99.90;;;;;;5079831;22;20059;-76
2021/05/08 03:31:32;;;;;;;15.23;7.35;;;4.20;99.90;;;;;;5102639;22;20036;-76
2021/05/08 03:33:58;;;;;;;12.23;6.82;;;4.30;99.90;;;;;;5076814;28;20017;-76
2021/05/08 03:36:24;;;;;;;14.30;6.70;;;4.30;99.90;;;;;;5076654;28;20100;-75
2021/05/08 03:38:50;;;;;;;20.25;8.15;;;4.30;99.90;;;;;;5076380;28;20059;-76
2021/05/08 03:41:15;;;;;;;13.82;6.78;;;4.40;99.90;;;;;;5058468;28;20024;-78
2021/05/08 03:43:41;;;;;;;18.05;7.25;;;4.40;99.90;;;;;;5076459;28;20013;-76
2021/05/08 03:46:06;;;;;;;16.65;7.55;;;4.40;99.90;;;;;;5076802;28;20021;-76
2021/05/08 03:48:32;;;;;;;15.32;7.32;;;4.50;99.90;;;;;;5092051;22;20051;-75
2021/05/08 03:50:57;;;;;;;14.70;6.95;;;4.50;99.90;;;;;;5096330;28;20611;-75
2021/05/08 03:53:23;;;;;;;13.60;7.35;;;4.50;99.90;;;;;;5121662;22;20027;-78
2021/05/08 03:55:51;;;;;;;14.88;7.63;;;4.50;99.90;;;;;;5078314;28;20082;-76
2021/05/08 03:58:20;;;;;;;14.13;7.45;;;4.50;99.90;;;;;;5078515;28;20016;-76
2021/05/08 04:00:46;;;;;;;14.25;6.90;;;4.50;99.90;;;;;;5078377;28;20031;-75
2021/05/08 04:03:11;;;;;;;14.88;6.97;;;4.50;99.90;;;;;;5096247;28;20110;-76
2021/05/08 04:05:37;;;;;;;12.27;6.97;;;4.60;99.90;;;;;;5096584;28;20073;-78
2021/05/08 04:08:02;;;;;;;18.23;6.75;;;4.60;99.90;;;;;;5131303;22;20082;-76
2021/05/08 04:10:28;;;;;;;11.60;6.35;;;4.60;99.90;;;;;;5096329;28;20114;-78
2021/05/08 04:12:54;;;;;;;13.38;6.90;;;4.70;99.90;;;;;;5065563;28;20017;-75
2021/05/08 04:15:19;;;;;;;15.43;6.90;;;4.60;99.90;;;;;;5075792;28;20031;-77
2021/05/08 04:17:45;;;;;;;15.18;7.07;;;4.80;99.90;;;;;;5074804;28;20059;-75
2021/05/08 04:20:11;;;;;;;11.60;5.97;;;4.80;99.90;;;;;;5075502;28;20485;-76
2021/05/08 04:22:37;;;;;;;11.02;6.18;;;4.90;99.90;;;;;;5076205;28;20024;-77
2021/05/08 04:25:03;;;;;;;14.88;6.20;;;5.00;99.90;;;;;;5075894;28;20088;-76
2021/05/08 04:27:28;;;;;;;14.63;6.68;;;5.10;99.90;;;;;;5057402;28;20021;-76
2021/05/08 04:29:55;;;;;;;12.23;6.13;;;5.10;99.90;;;;;;5075095;28;20036;-76
2021/05/08 04:32:20;;;;;;;11.52;6.57;;;5.20;99.90;;;;;;5075289;28;20066;-76
2021/05/08 04:34:46;;;;;;;11.73;5.68;;;5.30;99.90;;;;;;5057212;28;20029;-76
2021/05/08 04:37:12;;;;;;;12.20;5.82;;;5.30;99.90;;;;;;5075061;28;20021;-76
2021/05/08 04:39:37;;;;;;;13.07;5.47;;;5.30;99.90;;;;;;5075038;28;20119;-76
2021/05/08 04:42:03;;;;;;;11.68;5.88;;;5.40;99.90;;;;;;5057218;28;20392;-75
2021/05/08 04:44:28;;;;;;;9.30;4.68;;;5.40;99.90;;;;;;5075569;28;20027;-75
2021/05/08 04:46:54;;;;;;;10.65;5.63;;;5.40;99.90;;;;;;5075064;28;20024;-76
2021/05/08 04:49:20;;;;;;;12.63;5.10;;;5.50;99.90;;;;;;5073825;28;20393;-76
2021/05/08 04:51:45;;;;;;;13.35;5.63;;;5.60;99.90;;;;;;5075031;28;20469;-75
2021/05/08 04:54:11;;;;;;;9.95;4.85;;;5.60;99.90;;;;;;5075564;28;20028;-77
2021/05/08 04:56:37;;;;;;;9.75;4.30;;;5.60;99.90;;;;;;5073812;28;20032;-75
2021/05/08 04:59:02;;;;;;;10.40;5.20;;;5.70;99.90;;;;;;5056880;28;20111;-75
2021/05/08 05:01:30;;;;;;;12.63;5.00;;;5.70;99.90;;;;;;5056903;28;20464;-76
2021/05/08 05:03:55;;;;;;;9.90;5.00;;;5.80;99.90;;;;;;5074909;28;20029;-77
2021/05/08 05:06:21;;;;;;;9.13;5.15;;;5.80;99.90;;;;;;5056951;28;20385;-75
2021/05/08 05:08:46;;;;;;;10.95;4.50;;;5.90;99.90;;;;;;5074946;28;20024;-75
2021/05/08 05:11:12;;;;;;;8.70;4.50;;;5.90;99.90;;;;;;5074542;28;20025;-75
2021/05/08 05:13:39;;;;;;;10.10;4.60;;;6.00;99.90;;;;;;5074957;28;20365;-76
2021/05/08 05:16:05;;;;;;;8.73;4.30;;;6.10;99.90;;;;;;5075201;28;20024;-75
2021/05/08 05:18:31;;;;;;;6.07;3.17;;;6.20;99.90;;;;;;5056566;28;20112;-76
2021/05/08 05:20:56;;;;;;;12.32;4.90;;;6.30;99.90;;;;;;5056645;28;20020;-76
2021/05/08 05:23:22;;;;;;;10.30;4.18;;;6.40;99.90;;;;;;5074477;28;20025;-76
2021/05/08 05:25:48;;;;;;;6.70;3.85;;;6.50;99.90;;;;;;5074815;28;20033;-76
2021/05/08 05:28:28;;;;;;;9.27;4.13;;;6.50;99.90;;;;;;5073863;28;20020;-75
2021/05/08 05:30:54;;;;;;;10.02;4.22;;;6.60;99.90;;;;;;5074772;28;20020;-76
2021/05/08 05:33:20;;;;;;;9.63;4.53;;;6.70;99.90;;;;;;5074443;28;20029;-75
2021/05/08 05:35:54;;;;;;;7.80;4.40;;;6.80;99.90;;;;;;5075468;28;20033;-75
2021/05/08 05:38:20;;;;;;;7.07;3.25;;;7.00;99.90;;;;;;5074583;28;20036;-75
2021/05/08 05:40:46;;;;;;;8.15;3.75;;;7.10;99.90;;;;;;5073973;28;20021;-76
2021/05/08 05:43:12;;;;;;;6.03;3.30;;;7.20;99.90;;;;;;5074357;28;20035;-75
2021/05/08 05:45:37;;;;;;;8.93;3.78;;;7.30;99.90;;;;;;5069812;23;20406;-75
2021/05/08 05:48:07;;;;;;;6.82;3.53;;;7.40;99.90;;;;;;5056187;28;20073;-77
2021/05/08 05:50:40;;;;;;;7.03;3.17;;;7.50;99.90;;;;;;5074098;28;20496;-76
2021/05/08 05:53:06;;;;;;;9.38;3.75;;;7.60;99.90;;;;;;5073905;28;20394;-75
2021/05/08 05:55:32;;;;;;;7.25;3.60;;;7.70;99.90;;;;;;5056062;28;20027;-75
2021/05/08 05:57:58;;;;;;;8.93;3.53;;;7.80;99.90;;;;;;5073318;28;20044;-75
2021/05/08 06:00:24;;;;;;;6.35;3.55;;;7.90;99.90;;;;;;5056449;28;20098;-75
2021/05/08 06:02:49;;;;;;;9.35;3.90;;;8.00;99.90;;;;;;5036240;28;20017;-75
2021/05/08 06:05:18;;;;;;;8.82;3.58;;;8.10;99.90;;;;;;5054049;28;20025;-75
2021/05/08 06:07:44;;;;;;;8.02;4.07;;;8.10;99.90;;;;;;5063153;28;20070;-74
2021/05/08 06:10:11;;;;;;;7.28;3.42;;;8.20;99.30;;;;;;5055609;28;20032;-75
2021/05/08 06:12:37;;;;;;;7.53;2.97;;;8.20;99.90;;;;;;5056073;28;20016;-75
2021/05/08 06:15:04;;;;;;;5.32;3.40;;;8.20;99.80;;;;;;5074137;28;20033;-75
2021/05/08 06:17:30;;;;;;;5.78;3.55;;;8.30;99.80;;;;;;5069336;22;20037;-76
2021/05/08 06:19:56;;;;;;;6.88;2.90;;;8.30;98.40;;;;;;5073840;28;20024;-75
2021/05/08 06:22:21;;;;;;;7.57;3.38;;;8.30;99.40;;;;;;5055858;28;20017;-75
2021/05/08 06:24:47;;;;;;;7.03;3.20;;;8.30;99.40;;;;;;5105683;22;20043;-75
2021/05/08 06:27:12;;;;;;;6.68;3.50;;;8.40;99.00;;;;;;5094290;28;20016;-74
2021/05/08 06:29:38;;;;;;;10.43;3.88;;;8.50;98.40;;;;;;5094170;28;20061;-75
2021/05/08 06:32:04;;;;;;;11.77;3.38;;;8.50;98.70;;;;;;5094331;28;20052;-75
2021/05/08 06:34:30;;;;;;;6.93;3.28;;;8.60;98.40;;;;;;5094034;28;20533;-75
2021/05/08 06:36:58;;;;;;;3.45;2.30;;;8.70;98.60;;;;;;5094114;28;20028;-75
2021/05/08 06:39:24;;;;;;;6.70;3.00;;;8.70;97.80;;;;;;5094139;28;20468;-76
2021/05/08 06:41:49;;;;;;;4.65;2.67;;;8.80;96.90;;;;;;5107477;22;20044;-75
2021/05/08 06:44:15;;;;;;;6.45;3.30;;;8.80;97.20;;;;;;5097355;28;20020;-76
2021/05/08 06:46:40;;;;;;;7.72;2.97;;;8.80;97.40;;;;;;5079837;28;20077;-75
2021/05/08 06:49:06;;;;;;;7.15;3.10;;;8.90;96.80;;;;;;5088471;22;20041;-75
2021/05/08 06:51:34;;;;;;;6.57;3.63;;;9.00;96.60;;;;;;5077389;28;20017;-76
2021/05/08 06:54:00;;;;;;;3.88;2.40;;;9.10;95.60;;;;;;5077869;28;20025;-75
2021/05/08 06:56:26;;;;;;;8.02;3.10;;;9.00;95.10;;;;;;5077669;28;20031;-76
2021/05/08 06:58:53;;;;;;;5.88;3.38;;;9.00;95.10;;;;;;5077762;28;20036;-75
2021/05/08 07:01:18;;;;;;;7.15;3.03;;;9.10;95.30;;;;;;5058936;28;20024;-75
2021/05/08 07:03:44;;;;;;;7.38;2.92;;;9.20;95.90;;;;;;5077796;28;20021;-75
2021/05/08 07:06:09;;;;;;;5.32;3.00;;;9.30;95.30;;;;;;5077420;28;20024;-77
2021/05/08 07:08:35;;;;;;;7.40;3.22;;;9.40;95.20;;;;;;5060215;28;20530;-75
2021/05/08 07:11:01;;;;;;;7.18;3.42;;;9.50;94.60;;;;;;5076501;22;20460;-75
2021/05/08 07:13:27;;;;;;;7.97;3.40;;;9.60;93.50;;;;;;5097251;28;20477;-75
2021/05/08 07:15:56;;;;;;;6.72;3.20;;;9.70;93.60;;;;;;5097538;28;20024;-75
2021/05/08 07:18:23;;;;;;;8.10;2.67;;;9.80;93.20;;;;;;5097493;28;20020;-75
2021/05/08 07:20:49;;;;;;;8.27;2.90;;;9.90;93.10;;;;;;5077379;28;20051;-75
2021/05/08 07:23:14;;;;;;;7.30;3.17;;;9.80;91.90;;;;;;5088782;28;20028;-75
2021/05/08 07:25:40;;;;;;;7.35;3.08;;;9.90;92.50;;;;;;5097570;28;20165;-75
2021/05/08 07:28:14;;;;;;;7.50;2.42;;;10.00;92.60;;;;;;5078821;28;20016;-75
2021/05/08 07:30:41;;;;;;;7.25;3.70;;;10.00;91.40;;;;;;5097579;28;20024;-75
2021/05/08 07:33:07;;;;;;;8.07;3.15;;;10.10;92.20;;;;;;5097338;28;20479;-76
2021/05/08 07:35:33;;;;;;;5.07;3.10;;;10.20;92.60;;;;;;5097070;28;20048;-76
2021/05/08 07:37:59;;;;;;;7.25;3.20;;;10.10;91.80;;;;;;5097493;22;20427;-78
2021/05/08 07:40:24;;;;;;;8.75;3.88;;;10.20;91.80;;;;;;5077161;28;20059;-77
2021/05/08 07:42:50;;;;;;;5.15;2.95;;;10.20;92.10;;;;;;5091092;22;20020;-76
2021/05/08 07:45:16;;;;;;;7.20;3.60;;;10.30;92.10;;;;;;5094029;22;20388;-75
2021/05/08 07:47:42;;;;;;;7.85;3.42;;;10.30;92.30;;;;;;5097168;28;20125;-75
2021/05/08 07:50:08;;;;;;;7.80;3.33;;;10.30;92.50;;;;;;5078687;28;20020;-77
2021/05/08 07:52:34;;;;;;;5.78;3.33;;;10.30;91.50;;;;;;5095958;28;20020;-76
2021/05/08 07:55:00;;;;;;;7.60;3.60;;;10.30;91.20;;;;;;5096735;28;20396;-75
2021/05/08 07:57:26;;;;;;;6.50;3.25;;;10.40;91.50;;;;;;5079257;28;20027;-75
2021/05/08 07:59:52;;;;;;;6.18;4.15;;;10.40;91.30;;;;;;5097095;28;20480;-75
2021/05/08 08:02:17;;;;;;;7.15;3.53;;;10.40;91.70;;;;;;5097748;28;20090;-75
2021/05/08 08:04:43;;;;;;;6.63;3.30;;;10.50;91.90;;;;;;5098187;28;20017;-75
2021/05/08 08:07:08;;;;;;;6.00;3.20;;;10.50;91.60;;;;;;5079260;28;20024;-75
2021/05/08 08:09:34;;;;;;;8.60;3.85;;;10.50;91.60;;;;;;5096477;28;20027;-75
2021/05/08 08:11:59;;;;;;;7.30;3.25;;;10.60;91.40;;;;;;5096972;28;20103;-75
2021/05/08 08:14:25;;;;;;;5.50;2.92;;;10.70;91.20;;;;;;5096569;28;20024;-75
2021/05/08 08:16:50;;;;;;;8.88;3.40;;;10.70;90.80;;;;;;5078581;28;20032;-75
2021/05/08 08:19:16;;;;;;;8.18;3.28;;;10.80;90.50;;;;;;5095986;28;20473;-78
2021/05/08 08:21:42;;;;;;;11.50;3.90;;;10.80;90.50;;;;;;5096343;28;20393;-74
2021/05/08 08:24:08;;;;;;;9.20;3.38;;;10.90;90.70;;;;;;5096366;28;20377;-74
2021/05/08 08:26:35;;;;;;;6.82;2.83;;;11.00;90.00;;;;;;5095887;28;20024;-75
2021/05/08 08:29:01;;;;;;;9.10;3.17;;;11.00;89.40;;;;;;5095883;28;20358;-75
2021/05/08 08:31:30;;;;;;;6.90;2.88;;;11.10;90.10;;;;;;5095989;28;20076;-77
2021/05/08 08:33:55;;;;;;;11.40;3.83;;;11.20;89.90;;;;;;5096681;28;20081;-75
2021/05/08 08:36:21;;;;;;;7.32;3.20;;;11.30;88.50;;;;;;5096011;28;20412;-75
2021/05/08 08:38:46;;;;;;;5.63;2.45;;;11.40;88.40;;;;;;5095452;28;20126;-75
2021/05/08 08:41:15;;;;;;;7.72;3.20;;;11.40;86.80;;;;;;5096029;28;20385;-76
2021/05/08 08:43:42;;;;;;;6.55;2.88;;;11.50;89.30;;;;;;5096037;28;20016;-75
2021/05/08 08:46:11;;;;;;;6.78;2.85;;;11.60;89.00;;;;;;5088363;28;20110;-76
2021/05/08 08:48:42;;;;;;;9.40;3.53;;;11.70;89.20;;;;;;5115740;28;20549;-74
2021/05/08 08:51:07;;;;;;;9.88;3.30;;;11.80;86.80;;;;;;5109033;22;20045;-75
2021/05/08 08:53:33;;;;;;;14.63;3.45;;;11.90;86.60;;;;;;5074408;28;20428;-78
2021/05/08 08:55:59;;;;;;;6.72;3.20;;;12.00;85.70;;;;;;5061392;23;20064;-77
2021/05/08 08:58:35;;;;;;;6.75;2.65;;;12.10;86.20;;;;;;5054677;28;20107;-76
2021/05/08 09:01:03;;;;;;;7.00;2.90;;;12.20;86.50;;;;;;5054852;28;20021;-75
2021/05/08 09:03:29;;;;;;;9.10;2.70;;;12.30;85.40;;;;;;5053712;28;20053;-75
2021/05/08 09:05:54;;;;;;;11.13;3.22;;;12.40;84.60;;;;;;5054826;28;20014;-75
2021/05/08 09:08:20;;;;;;;6.90;3.03;;;12.50;84.30;;;;;;5036715;28;20056;-75
2021/05/08 09:10:45;;;;;;;5.10;2.30;;;12.60;84.40;;;;;;5054781;28;20024;-78
2021/05/08 09:13:22;;;;;;;6.05;2.53;;;12.60;83.30;;;;;;5072230;22;21072;-76
2021/05/08 09:15:50;;;;;;;9.55;2.83;;;12.70;83.50;;;;;;5095048;28;20020;-75
2021/05/08 09:18:38;;;;;;;4.93;2.22;;;12.90;82.60;;;;;;5094812;28;20016;-74
2021/05/08 09:21:06;;;;;;;6.53;2.50;;;13.00;81.90;;;;;;5076364;28;20500;-76
2021/05/08 09:23:40;;;;;;;4.38;2.05;;;13.20;80.60;;;;;;5069540;23;20041;-75
2021/05/08 09:26:11;;;;;;;6.68;2.28;;;13.30;79.80;;;;;;5075361;28;20017;-73
2021/05/08 09:28:41;;;;;;;5.68;2.05;;;13.50;76.90;;;;;;5074149;28;20457;-75
2021/05/08 09:31:12;;;;;;;4.60;1.60;;;13.40;74.10;;;;;;5074710;28;20070;-77
2021/05/08 09:33:40;;;;;;;3.97;1.70;;;13.40;73.80;;;;;;5074475;28;20032;-74
2021/05/08 09:36:11;;;;;;;3.75;1.65;;;13.50;73.80;;;;;;5074430;28;20024;-75
2021/05/08 09:38:40;;;;;;;5.75;1.75;;;13.50;73.00;;;;;;5074473;28;20039;-75
2021/05/08 09:41:08;;;;;;;4.20;1.52;;;13.40;72.30;;;;;;5074055;28;20032;-75
2021/05/08 09:43:36;;;;;;;4.33;1.50;;;13.40;72.50;;;;;;5073926;28;20012;-73
2021/05/08 09:46:02;;;;;;;4.47;1.47;;;13.30;72.60;;;;;;5056146;28;20021;-76
2021/05/08 09:48:33;;;;;;;2.60;1.40;;;13.30;73.90;;;;;;5073851;28;20614;-74
2021/05/08 09:51:25;;;;;;;3.47;1.35;;;13.30;73.40;;;;;;5056256;28;20548;-77
2021/05/08 09:53:52;;;;;;;1.75;0.90;;;13.30;73.40;;;;;;5041354;28;20029;-77
2021/05/08 09:56:34;;;;;;;5.55;1.13;;;13.20;74.80;;;;;;5074311;28;20191;-76
2021/05/08 09:59:25;;;;;;;4.47;1.40;;;13.30;75.90;;;;;;5067125;28;20481;-77
2021/05/08 10:02:11;;;;;;;4.53;1.13;;;13.40;78.10;;;;;;5080728;22;20131;-75
2021/05/08 10:04:50;;;;;;;5.88;1.05;;;13.50;78.40;;;;;;5106575;22;20399;-74
2021/05/08 10:07:21;;;;;;;3.55;0.73;;;13.70;76.90;;;;;;5093952;28;20012;-76
2021/05/08 10:09:52;;;;;;;3.50;0.75;;;13.70;74.80;;;;;;5106972;22;20044;-77
2021/05/08 10:12:19;;;;;;;5.68;1.27;;;13.70;77.40;;;;;;5093000;28;20016;-75
2021/05/08 10:14:47;;;;;;;4.40;0.80;;;13.70;76.50;;;;;;5093528;28;20028;-76
2021/05/08 10:17:15;;;;;;;3.60;0.88;;;13.60;75.70;;;;;;5094001;28;20069;-75
2021/05/08 10:19:43;;;;;;;3.10;0.95;;;13.60;79.80;;;;;;5075463;28;20031;-76
2021/05/08 10:22:11;;;;;;;4.93;1.42;;;13.60;81.60;;;;;;5093724;28;20377;-77
2021/05/08 10:24:45;;;;;;;3.70;0.88;;;13.70;83.70;;;;;;5097807;22;20040;-74
2021/05/08 10:27:11;;;;;;;2.40;0.63;;;13.60;79.20;;;;;;5076967;28;20496;-76
2021/05/08 10:29:48;;;;;;;2.13;0.98;;;13.50;77.00;;;;;;5092262;28;20019;-76
2021/05/08 10:32:17;;;;;;;4.07;0.88;;;13.40;76.90;;;;;;5085748;28;20024;-74
2021/05/08 10:35:00;;;;;;;2.33;1.17;;;13.40;79.60;;;;;;5073164;28;20074;-74
2021/05/08 10:37:27;;;;;;;3.67;0.77;;;13.30;84.10;;;;;;5072900;28;20174;-74
2021/05/08 10:40:00;;;;;;;2.00;0.47;;;13.40;80.90;;;;;;5073078;28;20500;-74
2021/05/08 10:42:35;;;;;;;1.23;0.63;;;13.30;81.40;;;;;;5071614;28;20065;-74
2021/05/08 10:45:17;;;;;;;5.40;0.68;;;13.20;84.90;;;;;;5071522;28;20035;-74
2021/05/08 10:47:55;;;;;;;3.33;1.42;;;13.10;89.60;;;;;;5080859;23;20037;-74
2021/05/08 10:50:25;;;;;;;2.35;0.90;;;13.00;88.50;;;;;;5095983;22;20047;-75
2021/05/08 10:53:00;;;;;;;1.23;0.45;;;12.90;91.70;;;;;;5106038;22;20071;-74
2021/05/08 10:55:28;;;;;;;3.47;0.70;;;12.90;91.30;;;;;;5075784;28;20123;-75
2021/05/08 10:58:20;;;;;;;0.63;0.30;;;12.90;91.80;;;;;;5085575;28;20024;-74
2021/05/08 11:01:00;;;;;;;2.67;1.10;;;12.80;91.80;;;;;;5093671;28;20044;-74
2021/05/08 11:03:55;;;;;;;5.38;0.70;;;12.80;95.30;;;;;;5074672;28;20012;-74
2021/05/08 11:06:22;;;;;;;3.00;0.68;;;12.90;95.80;;;;;;5064652;28;20127;-74
2021/05/08 11:08:49;;;;;;;2.00;1.15;;;12.90;96.90;;;;;;5075054;28;20012;-74
2021/05/08 11:11:22;;;;;;;4.05;1.52;;;12.90;98.90;;;;;;5092857;28;20036;-74
2021/05/08 11:14:01;;;;;;;3.40;0.52;;;12.80;99.90;;;;;;5087286;28;20024;-74
2021/05/08 11:16:31;;;;;;;3.40;0.70;;;12.70;99.90;;;;;;5091822;28;20451;-74
2021/05/08 11:18:58;;;;;;;1.90;0.73;;;12.70;99.90;;;;;;5093139;28;20073;-74
2021/05/08 11:21:24;;;;;;;2.83;0.90;;;12.50;99.90;;;;;;5092195;28;20024;-75
2021/05/08 11:23:55;;;;;;;1.30;0.85;;;12.40;99.90;;;;;;5090207;28;20047;-76
2021/05/08 11:26:21;;;;;;;4.20;0.98;;;12.30;99.90;;;;;;5094184;28;20484;-74
2021/05/08 11:28:57;;;;;;;1.77;0.57;;;12.10;99.90;;;;;;5095704;28;20028;-73
2021/05/08 11:31:33;;;;;;;4.40;1.00;;;12.00;99.90;;;;;;5096916;28;20154;-77
2021/05/08 11:34:20;;;;;;;3.28;0.65;;;11.90;99.90;;;;;;5097734;28;20020;-74
2021/05/08 11:36:57;;;;;;;2.85;0.43;;;11.70;99.90;;;;;;5096430;28;20043;-76
2021/05/08 11:39:26;;;;;;;1.58;0.30;;;11.60;99.90;;;;;;5097424;28;20512;-75
2021/05/08 11:41:57;;;;;;;5.70;1.80;;;11.50;99.90;;;;;;5093899;28;20043;-76
2021/05/08 11:44:27;;;;;;;1.90;0.63;;;11.30;99.90;;;;;;5095532;28;20048;-76
2021/05/08 11:47:28;;;;;;;5.00;0.70;;;11.40;99.90;;;;;;5105815;22;20536;-76
2021/05/08 11:50:13;;;;;;;4.38;0.57;;;11.00;99.90;;;;;;5076841;28;20037;-76
2021/05/08 11:52:41;;;;;;;1.42;0.60;;;11.00;99.90;;;;;;5078822;28;20027;-74
2021/05/08 11:55:22;;;;;;;2.40;0.70;;;10.90;99.90;;;;;;5097248;28;20577;-76
2021/05/08 11:57:56;;;;;;;3.67;0.60;;;10.90;99.90;;;;;;5078813;28;20379;-74
2021/05/08 12:00:26;;;;;;;1.95;0.68;;;10.90;99.90;;;;;;5096353;28;20469;-74
2021/05/08 12:03:15;;;;;;;1.30;0.47;;;10.90;99.90;;;;;;5096813;28;20027;-76
2021/05/08 12:05:42;;;;;;;3.58;0.40;;;11.00;99.90;;;;;;5096560;28;20020;-76
2021/05/08 12:08:09;;;;;;;1.92;0.52;;;11.00;99.90;;;;;;5096888;28;20020;-76
2021/05/08 12:10:39;;;;;;;2.00;0.45;;;11.00;99.90;;;;;;5096033;28;20028;-74
2021/05/08 12:13:05;;;;;;;4.40;1.15;;;11.00;99.90;;;;;;5097091;28;20473;-73
2021/05/08 12:15:33;;;;;;;2.63;1.00;;;11.00;99.90;;;;;;5078053;28;20056;-73
2021/05/08 12:18:07;;;;;;;3.30;0.43;;;10.90;99.90;;;;;;5096368;28;20107;-76
2021/05/08 12:20:44;;;;;;;1.23;0.63;;;10.90;99.90;;;;;;5096563;28;20028;-75
2021/05/08 12:23:13;;;;;;;0.73;0.45;;;10.90;99.90;;;;;;5097387;28;20020;-76
2021/05/08 12:25:39;;;;;;;3.38;0.82;;;10.80;99.90;;;;;;5097397;28;20046;-76
2021/05/08 12:28:22;;;;;;;1.50;0.82;;;10.80;99.90;;;;;;5096828;28;20082;-76
2021/05/08 12:30:50;;;;;;;2.78;0.73;;;10.70;99.90;;;;;;5078268;28;20016;-74
2021/05/08 12:33:16;;;;;;;1.98;0.60;;;10.70;99.90;;;;;;5077897;28;20048;-75
2021/05/08 12:35:42;;;;;;;1.33;0.60;;;10.70;99.90;;;;;;5096599;28;20035;-74
2021/05/08 12:38:16;;;;;;;4.30;0.90;;;10.80;99.90;;;;;;5076918;28;20032;-75
2021/05/08 12:40:42;;;;;;;5.18;1.00;;;10.80;99.90;;;;;;5077476;28;20119;-74
2021/05/08 12:43:08;;;;;;;4.85;1.00;;;10.90;99.90;;;;;;5095980;28;20043;-74
2021/05/08 12:45:34;;;;;;;2.40;1.27;;;10.90;99.90;;;;;;5077590;28;20023;-76
2021/05/08 12:47:59;;;;;;;3.25;0.80;;;10.90;99.90;;;;;;5096192;28;20062;-74
2021/05/08 12:50:34;;;;;;;4.82;1.48;;;10.90;99.90;;;;;;5101301;22;20500;-76
2021/05/08 12:53:04;;;;;;;2.80;0.93;;;11.00;99.90;;;;;;5075217;28;20469;-76
2021/05/08 12:55:40;;;;;;;5.97;1.15;;;11.00;99.90;;;;;;5075509;28;20025;-74
2021/05/08 12:58:10;;;;;;;9.07;1.20;;;11.00;99.90;;;;;;5057438;28;20025;-75